sensor_id;sensor_type;location;lat;lon;timestamp;temperature;humidity
8945;DHT22;4507;40.232;29.132;2023-03-01T00:02:00;14.80;99.90
8945;DHT22;4507;40.232;29.132;2023-03-01T00:04:29;14.90;99.60
8945;DHT22;4507;40.232;29.132;2023-03-01T00:06:58;14.90;99.00
8945;DHT22;4507;40.232;29.132;2023-03-01T00:09:26;14.90;98.70
8945;DHT22;4507;40.232;29.132;2023-03-01T00:11:56;14.90;98.40
8945;DHT22;4507;40.232;29.132;2023-03-01T00:14:24;14.90;98.20
8945;DHT22;4507;40.232;29.132;2023-03-01T00:16:55;14.90;98.10
8945;DHT22;4507;40.232;29.132;2023-03-01T00:19:24;14.90;98.10
8945;DHT22;4507;40.232;29.132;2023-03-01T00:21:53;14.90;98.00
8945;DHT22;4507;40.232;29.132;2023-03-01T00:24:22;15.00;97.80
8945;DHT22;4507;40.232;29.132;2023-03-01T00:26:53;15.00;97.30
8945;DHT22;4507;40.232;29.132;2023-03-01T00:29:23;15.00;96.90
8945;DHT22;4507;40.232;29.132;2023-03-01T00:31:54;15.00;96.70
8945;DHT22;4507;40.232;29.132;2023-03-01T00:34:23;15.00;96.70
8945;DHT22;4507;40.232;29.132;2023-03-01T00:36:52;15.00;96.60
8945;DHT22;4507;40.232;29.132;2023-03-01T00:39:21;15.00;96.60
8945;DHT22;4507;40.232;29.132;2023-03-01T00:41:50;14.90;96.50
8945;DHT22;4507;40.232;29.132;2023-03-01T00:44:18;14.90;96.50
8945;DHT22;4507;40.232;29.132;2023-03-01T00:46:49;14.90;96.70
8945;DHT22;4507;40.232;29.132;2023-03-01T00:49:19;14.90;96.80
8945;DHT22;4507;40.232;29.132;2023-03-01T00:51:49;14.90;96.80
8945;DHT22;4507;40.232;29.132;2023-03-01T00:54:18;14.90;96.10
8945;DHT22;4507;40.232;29.132;2023-03-01T00:56:47;14.90;96.10
8945;DHT22;4507;40.232;29.132;2023-03-01T00:59:16;14.90;95.90
8945;DHT22;4507;40.232;29.132;2023-03-01T01:01:45;14.90;95.90
8945;DHT22;4507;40.232;29.132;2023-03-01T01:04:14;15.00;95.60
8945;DHT22;4507;40.232;29.132;2023-03-01T01:06:47;14.90;95.20
8945;DHT22;4507;40.232;29.132;2023-03-01T01:09:17;14.90;94.80
8945;DHT22;4507;40.232;29.132;2023-03-01T01:11:47;14.90;94.70
8945;DHT22;4507;40.232;29.132;2023-03-01T01:14:17;14.90;94.50
8945;DHT22;4507;40.232;29.132;2023-03-01T01:16:48;14.90;94.30
8945;DHT22;4507;40.232;29.132;2023-03-01T01:19:17;15.00;94.30
8945;DHT22;4507;40.232;29.132;2023-03-01T01:21:47;15.00;94.10
8945;DHT22;4507;40.232;29.132;2023-03-01T01:24:17;15.10;93.80
8945;DHT22;4507;40.232;29.132;2023-03-01T01:26:46;15.10;93.60
8945;DHT22;4507;40.232;29.132;2023-03-01T01:29:15;15.10;93.40
8945;DHT22;4507;40.232;29.132;2023-03-01T01:31:44;15.10;93.20
8945;DHT22;4507;40.232;29.132;2023-03-01T01:34:14;15.10;93.20
8945;DHT22;4507;40.232;29.132;2023-03-01T01:36:46;15.20;93.10
8945;DHT22;4507;40.232;29.132;2023-03-01T01:39:17;15.20;93.00
8945;DHT22;4507;40.232;29.132;2023-03-01T01:41:46;15.20;92.80
8945;DHT22;4507;40.232;29.132;2023-03-01T01:44:19;15.20;92.80
8945;DHT22;4507;40.232;29.132;2023-03-01T01:46:53;15.20;92.60
8945;DHT22;4507;40.232;29.132;2023-03-01T01:49:30;15.20;92.50
8945;DHT22;4507;40.232;29.132;2023-03-01T01:52:08;15.30;92.40
8945;DHT22;4507;40.232;29.132;2023-03-01T01:54:46;15.30;92.20
8945;DHT22;4507;40.232;29.132;2023-03-01T01:57:22;15.30;92.10
8945;DHT22;4507;40.232;29.132;2023-03-01T01:59:54;15.30;92.10
8945;DHT22;4507;40.232;29.132;2023-03-01T02:02:24;15.30;92.00
8945;DHT22;4507;40.232;29.132;2023-03-01T02:05:01;15.30;92.10
8945;DHT22;4507;40.232;29.132;2023-03-01T02:07:32;15.30;92.20
8945;DHT22;4507;40.232;29.132;2023-03-01T02:10:03;15.30;92.30
8945;DHT22;4507;40.232;29.132;2023-03-01T02:12:33;15.20;92.50
8945;DHT22;4507;40.232;29.132;2023-03-01T02:15:03;15.20;92.70
8945;DHT22;4507;40.232;29.132;2023-03-01T02:17:33;15.20;92.90
8945;DHT22;4507;40.232;29.132;2023-03-01T02:20:12;15.10;93.10
8945;DHT22;4507;40.232;29.132;2023-03-01T02:22:46;15.10;93.30
8945;DHT22;4507;40.232;29.132;2023-03-01T02:25:27;15.10;93.40
8945;DHT22;4507;40.232;29.132;2023-03-01T02:28:02;15.10;93.60
8945;DHT22;4507;40.232;29.132;2023-03-01T02:30:35;15.00;93.70
8945;DHT22;4507;40.232;29.132;2023-03-01T02:33:04;15.00;93.80
8945;DHT22;4507;40.232;29.132;2023-03-01T02:35:35;15.00;93.90
8945;DHT22;4507;40.232;29.132;2023-03-01T02:38:07;15.00;94.10
8945;DHT22;4507;40.232;29.132;2023-03-01T02:40:38;14.90;94.20
8945;DHT22;4507;40.232;29.132;2023-03-01T02:43:10;14.90;94.30
8945;DHT22;4507;40.232;29.132;2023-03-01T02:45:48;14.90;94.50
8945;DHT22;4507;40.232;29.132;2023-03-01T02:48:41;14.90;94.70
8945;DHT22;4507;40.232;29.132;2023-03-01T02:51:26;14.90;94.80
8945;DHT22;4507;40.232;29.132;2023-03-01T02:54:06;14.90;94.90
8945;DHT22;4507;40.232;29.132;2023-03-01T02:56:37;14.90;95.00
8945;DHT22;4507;40.232;29.132;2023-03-01T02:59:06;14.90;95.10
8945;DHT22;4507;40.232;29.132;2023-03-01T03:01:37;14.80;95.10
8945;DHT22;4507;40.232;29.132;2023-03-01T03:04:09;14.80;95.10
8945;DHT22;4507;40.232;29.132;2023-03-01T03:06:39;14.80;95.30
8945;DHT22;4507;40.232;29.132;2023-03-01T03:09:09;14.70;95.40
8945;DHT22;4507;40.232;29.132;2023-03-01T03:11:41;14.70;95.50
8945;DHT22;4507;40.232;29.132;2023-03-01T03:14:12;14.70;95.60
8945;DHT22;4507;40.232;29.132;2023-03-01T03:16:47;14.60;95.60
8945;DHT22;4507;40.232;29.132;2023-03-01T03:19:17;14.60;95.70
8945;DHT22;4507;40.232;29.132;2023-03-01T03:21:46;14.60;95.80
8945;DHT22;4507;40.232;29.132;2023-03-01T03:24:22;14.30;95.90
8945;DHT22;4507;40.232;29.132;2023-03-01T03:27:10;14.50;96.20
8945;DHT22;4507;40.232;29.132;2023-03-01T03:29:39;14.50;96.50
8945;DHT22;4507;40.232;29.132;2023-03-01T03:32:10;14.50;96.60
8945;DHT22;4507;40.232;29.132;2023-03-01T03:34:39;14.50;96.70
8945;DHT22;4507;40.232;29.132;2023-03-01T03:37:08;14.50;96.70
8945;DHT22;4507;40.232;29.132;2023-03-01T03:39:59;14.50;96.70
8945;DHT22;4507;40.232;29.132;2023-03-01T03:42:28;14.40;96.60
8945;DHT22;4507;40.232;29.132;2023-03-01T03:44:57;14.40;96.60
8945;DHT22;4507;40.232;29.132;2023-03-01T03:47:27;14.40;96.70
8945;DHT22;4507;40.232;29.132;2023-03-01T03:49:56;14.40;96.80
8945;DHT22;4507;40.232;29.132;2023-03-01T03:52:25;14.40;97.00
8945;DHT22;4507;40.232;29.132;2023-03-01T03:54:54;14.40;97.20
8945;DHT22;4507;40.232;29.132;2023-03-01T03:57:23;14.40;97.30
8945;DHT22;4507;40.232;29.132;2023-03-01T03:59:52;14.30;97.20
8945;DHT22;4507;40.232;29.132;2023-03-01T04:02:21;14.30;97.20
8945;DHT22;4507;40.232;29.132;2023-03-01T04:04:52;14.20;97.20
8945;DHT22;4507;40.232;29.132;2023-03-01T04:07:21;14.20;97.10
8945;DHT22;4507;40.232;29.132;2023-03-01T04:09:49;14.10;97.30
8945;DHT22;4507;40.232;29.132;2023-03-01T04:12:18;14.00;97.20
8945;DHT22;4507;40.232;29.132;2023-03-01T04:15:10;13.90;97.20
8945;DHT22;4507;40.232;29.132;2023-03-01T04:17:41;13.80;97.30
8945;DHT22;4507;40.232;29.132;2023-03-01T04:20:13;13.70;97.50
8945;DHT22;4507;40.232;29.132;2023-03-01T04:22:44;13.50;97.60
8945;DHT22;4507;40.232;29.132;2023-03-01T04:28:06;13.40;98.10
8945;DHT22;4507;40.232;29.132;2023-03-01T04:30:35;13.20;98.20
8945;DHT22;4507;40.232;29.132;2023-03-01T04:33:05;13.10;98.40
8945;DHT22;4507;40.232;29.132;2023-03-01T04:35:36;13.10;98.70
8945;DHT22;4507;40.232;29.132;2023-03-01T04:38:07;13.00;98.90
8945;DHT22;4507;40.232;29.132;2023-03-01T04:40:36;12.90;99.10
8945;DHT22;4507;40.232;29.132;2023-03-01T04:43:08;12.80;99.20
8945;DHT22;4507;40.232;29.132;2023-03-01T04:45:37;12.70;99.50
8945;DHT22;4507;40.232;29.132;2023-03-01T04:48:06;12.70;99.80
8945;DHT22;4507;40.232;29.132;2023-03-01T04:50:37;12.60;99.90
8945;DHT22;4507;40.232;29.132;2023-03-01T04:53:06;12.50;99.90
8945;DHT22;4507;40.232;29.132;2023-03-01T04:55:35;12.50;99.90
8945;DHT22;4507;40.232;29.132;2023-03-01T04:58:05;12.40;99.90
8945;DHT22;4507;40.232;29.132;2023-03-01T05:00:35;12.20;99.90
8945;DHT22;4507;40.232;29.132;2023-03-01T05:03:04;12.30;99.90
8945;DHT22;4507;40.232;29.132;2023-03-01T05:05:34;12.30;99.90
8945;DHT22;4507;40.232;29.132;2023-03-01T05:08:08;12.20;99.90
8945;DHT22;4507;40.232;29.132;2023-03-01T05:10:45;12.20;99.90
8945;DHT22;4507;40.232;29.132;2023-03-01T05:13:16;12.20;99.90
8945;DHT22;4507;40.232;29.132;2023-03-01T05:15:49;12.10;99.90
8945;DHT22;4507;40.232;29.132;2023-03-01T05:18:22;12.10;99.90
8945;DHT22;4507;40.232;29.132;2023-03-01T05:20:53;12.10;99.90
8945;DHT22;4507;40.232;29.132;2023-03-01T05:23:25;12.10;99.90
8945;DHT22;4507;40.232;29.132;2023-03-01T05:25:56;12.10;99.90
8945;DHT22;4507;40.232;29.132;2023-03-01T05:28:27;12.00;99.90
8945;DHT22;4507;40.232;29.132;2023-03-01T05:30:57;12.00;99.90
8945;DHT22;4507;40.232;29.132;2023-03-01T05:33:27;12.10;99.90
8945;DHT22;4507;40.232;29.132;2023-03-01T05:36:00;12.00;99.90
8945;DHT22;4507;40.232;29.132;2023-03-01T05:38:30;12.00;99.90
8945;DHT22;4507;40.232;29.132;2023-03-01T05:40:59;12.00;99.90
8945;DHT22;4507;40.232;29.132;2023-03-01T05:43:31;12.00;99.90
8945;DHT22;4507;40.232;29.132;2023-03-01T05:46:01;12.10;99.90
8945;DHT22;4507;40.232;29.132;2023-03-01T05:48:32;12.10;99.90
8945;DHT22;4507;40.232;29.132;2023-03-01T05:51:01;12.20;99.90
8945;DHT22;4507;40.232;29.132;2023-03-01T05:53:32;12.30;99.90
8945;DHT22;4507;40.232;29.132;2023-03-01T05:56:03;12.30;99.90
8945;DHT22;4507;40.232;29.132;2023-03-01T05:58:32;12.30;99.90
8945;DHT22;4507;40.232;29.132;2023-03-01T06:01:01;12.30;99.90
8945;DHT22;4507;40.232;29.132;2023-03-01T06:03:30;12.20;99.90
8945;DHT22;4507;40.232;29.132;2023-03-01T06:05:59;12.20;99.90
8945;DHT22;4507;40.232;29.132;2023-03-01T06:08:28;12.30;99.90
8945;DHT22;4507;40.232;29.132;2023-03-01T06:10:59;12.30;99.90
8945;DHT22;4507;40.232;29.132;2023-03-01T06:13:28;12.40;99.90
8945;DHT22;4507;40.232;29.132;2023-03-01T06:15:57;12.40;99.90
8945;DHT22;4507;40.232;29.132;2023-03-01T06:18:26;12.40;99.90
8945;DHT22;4507;40.232;29.132;2023-03-01T06:20:55;12.30;99.90
8945;DHT22;4507;40.232;29.132;2023-03-01T06:23:24;12.20;99.90
8945;DHT22;4507;40.232;29.132;2023-03-01T06:25:53;12.20;99.90
8945;DHT22;4507;40.232;29.132;2023-03-01T06:28:24;12.20;99.90
8945;DHT22;4507;40.232;29.132;2023-03-01T06:30:53;12.20;99.90
8945;DHT22;4507;40.232;29.132;2023-03-01T06:33:22;12.20;99.90
8945;DHT22;4507;40.232;29.132;2023-03-01T06:35:54;12.20;99.90
8945;DHT22;4507;40.232;29.132;2023-03-01T06:38:23;12.20;99.90
8945;DHT22;4507;40.232;29.132;2023-03-01T06:40:53;12.30;99.90
8945;DHT22;4507;40.232;29.132;2023-03-01T06:43:25;12.30;99.90
8945;DHT22;4507;40.232;29.132;2023-03-01T06:45:54;12.30;99.90
8945;DHT22;4507;40.232;29.132;2023-03-01T06:48:23;12.40;99.90
8945;DHT22;4507;40.232;29.132;2023-03-01T06:50:52;12.50;99.90
8945;DHT22;4507;40.232;29.132;2023-03-01T06:53:21;12.60;99.90
8945;DHT22;4507;40.232;29.132;2023-03-01T06:55:54;12.70;99.90
8945;DHT22;4507;40.232;29.132;2023-03-01T06:58:25;12.90;99.90
8945;DHT22;4507;40.232;29.132;2023-03-01T07:00:54;13.00;99.90
8945;DHT22;4507;40.232;29.132;2023-03-01T07:03:23;13.00;99.90
8945;DHT22;4507;40.232;29.132;2023-03-01T07:05:52;13.00;99.90
8945;DHT22;4507;40.232;29.132;2023-03-01T07:08:21;13.00;99.90
8945;DHT22;4507;40.232;29.132;2023-03-01T07:10:55;13.00;99.90
8945;DHT22;4507;40.232;29.132;2023-03-01T07:13:25;13.10;99.90
8945;DHT22;4507;40.232;29.132;2023-03-01T07:15:55;13.10;99.90
8945;DHT22;4507;40.232;29.132;2023-03-01T07:18:24;13.20;99.90
8945;DHT22;4507;40.232;29.132;2023-03-01T07:20:53;13.30;99.90
8945;DHT22;4507;40.232;29.132;2023-03-01T07:23:22;13.10;99.90
8945;DHT22;4507;40.232;29.132;2023-03-01T07:25:53;13.30;99.90
8945;DHT22;4507;40.232;29.132;2023-03-01T07:28:26;13.20;99.90
8945;DHT22;4507;40.232;29.132;2023-03-01T07:31:01;13.30;99.90
8945;DHT22;4507;40.232;29.132;2023-03-01T07:33:31;13.30;99.90
8945;DHT22;4507;40.232;29.132;2023-03-01T07:36:02;13.40;99.90
8945;DHT22;4507;40.232;29.132;2023-03-01T07:38:32;13.40;99.90
8945;DHT22;4507;40.232;29.132;2023-03-01T07:41:03;13.40;99.90
8945;DHT22;4507;40.232;29.132;2023-03-01T07:43:34;13.50;99.90
8945;DHT22;4507;40.232;29.132;2023-03-01T07:46:07;13.60;99.90
8945;DHT22;4507;40.232;29.132;2023-03-01T07:48:36;13.70;99.90
8945;DHT22;4507;40.232;29.132;2023-03-01T07:51:07;13.80;99.90
8945;DHT22;4507;40.232;29.132;2023-03-01T07:53:37;13.90;99.90
8945;DHT22;4507;40.232;29.132;2023-03-01T07:56:11;14.10;99.90
8945;DHT22;4507;40.232;29.132;2023-03-01T07:58:52;14.30;99.90
8945;DHT22;4507;40.232;29.132;2023-03-01T08:01:25;14.60;99.90
8945;DHT22;4507;40.232;29.132;2023-03-01T08:04:12;14.80;99.90
8945;DHT22;4507;40.232;29.132;2023-03-01T08:07:04;14.60;99.90
8945;DHT22;4507;40.232;29.132;2023-03-01T08:09:47;14.60;99.90
8945;DHT22;4507;40.232;29.132;2023-03-01T08:12:16;14.40;99.90
8945;DHT22;4507;40.232;29.132;2023-03-01T08:14:47;14.40;99.90
8945;DHT22;4507;40.232;29.132;2023-03-01T08:17:21;14.50;99.90
8945;DHT22;4507;40.232;29.132;2023-03-01T08:20:04;14.30;99.90
8945;DHT22;4507;40.232;29.132;2023-03-01T08:22:34;14.30;99.90
8945;DHT22;4507;40.232;29.132;2023-03-01T08:25:03;14.30;99.90
8945;DHT22;4507;40.232;29.132;2023-03-01T08:27:33;14.20;99.90
8945;DHT22;4507;40.232;29.132;2023-03-01T08:30:04;14.20;99.90
8945;DHT22;4507;40.232;29.132;2023-03-01T08:32:36;14.30;99.90
8945;DHT22;4507;40.232;29.132;2023-03-01T08:35:07;14.30;99.90
8945;DHT22;4507;40.232;29.132;2023-03-01T08:37:36;14.40;99.90
8945;DHT22;4507;40.232;29.132;2023-03-01T08:40:06;14.40;99.90
8945;DHT22;4507;40.232;29.132;2023-03-01T08:42:37;14.40;99.90
8945;DHT22;4507;40.232;29.132;2023-03-01T08:45:09;14.40;99.90
8945;DHT22;4507;40.232;29.132;2023-03-01T08:47:39;14.40;99.90
8945;DHT22;4507;40.232;29.132;2023-03-01T08:50:09;14.40;99.90
8945;DHT22;4507;40.232;29.132;2023-03-01T08:52:38;14.40;99.90
8945;DHT22;4507;40.232;29.132;2023-03-01T08:55:08;14.40;99.90
8945;DHT22;4507;40.232;29.132;2023-03-01T08:57:37;14.30;99.90
8945;DHT22;4507;40.232;29.132;2023-03-01T09:00:09;14.30;99.90
8945;DHT22;4507;40.232;29.132;2023-03-01T09:02:42;14.30;99.90
8945;DHT22;4507;40.232;29.132;2023-03-01T09:05:11;14.30;99.90
8945;DHT22;4507;40.232;29.132;2023-03-01T09:07:40;14.30;99.90
8945;DHT22;4507;40.232;29.132;2023-03-01T09:10:10;14.30;99.90
8945;DHT22;4507;40.232;29.132;2023-03-01T09:12:40;14.30;99.90
8945;DHT22;4507;40.232;29.132;2023-03-01T09:15:11;14.40;99.90
8945;DHT22;4507;40.232;29.132;2023-03-01T09:17:40;14.40;99.90
8945;DHT22;4507;40.232;29.132;2023-03-01T09:20:10;14.40;99.90
8945;DHT22;4507;40.232;29.132;2023-03-01T09:22:39;14.50;99.90
8945;DHT22;4507;40.232;29.132;2023-03-01T09:25:08;14.60;99.90
8945;DHT22;4507;40.232;29.132;2023-03-01T09:27:37;14.60;99.90
8945;DHT22;4507;40.232;29.132;2023-03-01T09:30:07;14.60;99.90
8945;DHT22;4507;40.232;29.132;2023-03-01T09:32:38;14.60;99.90
8945;DHT22;4507;40.232;29.132;2023-03-01T09:35:10;14.60;99.90
8945;DHT22;4507;40.232;29.132;2023-03-01T09:37:39;14.60;99.90
8945;DHT22;4507;40.232;29.132;2023-03-01T09:40:15;14.60;99.90
8945;DHT22;4507;40.232;29.132;2023-03-01T09:42:53;14.70;99.90
8945;DHT22;4507;40.232;29.132;2023-03-01T09:45:27;14.80;99.90
8945;DHT22;4507;40.232;29.132;2023-03-01T09:48:00;14.90;99.90
8945;DHT22;4507;40.232;29.132;2023-03-01T09:50:34;14.90;99.90
8945;DHT22;4507;40.232;29.132;2023-03-01T09:53:07;15.00;99.50
8945;DHT22;4507;40.232;29.132;2023-03-01T09:55:43;15.00;99.40
8945;DHT22;4507;40.232;29.132;2023-03-01T09:58:34;15.00;99.40
8945;DHT22;4507;40.232;29.132;2023-03-01T10:01:23;15.00;99.10
8945;DHT22;4507;40.232;29.132;2023-03-01T10:04:10;14.90;98.80
8945;DHT22;4507;40.232;29.132;2023-03-01T10:06:45;14.90;98.50
8945;DHT22;4507;40.232;29.132;2023-03-01T10:09:19;14.90;98.40
8945;DHT22;4507;40.232;29.132;2023-03-01T10:11:52;14.90;98.50
8945;DHT22;4507;40.232;29.132;2023-03-01T10:14:30;14.90;98.60
8945;DHT22;4507;40.232;29.132;2023-03-01T10:17:04;14.90;98.60
8945;DHT22;4507;40.232;29.132;2023-03-01T10:19:39;14.90;98.90
8945;DHT22;4507;40.232;29.132;2023-03-01T10:22:16;15.00;98.80
8945;DHT22;4507;40.232;29.132;2023-03-01T10:24:49;15.00;98.70
8945;DHT22;4507;40.232;29.132;2023-03-01T10:27:23;15.10;98.50
8945;DHT22;4507;40.232;29.132;2023-03-01T10:30:02;15.10;98.20
8945;DHT22;4507;40.232;29.132;2023-03-01T10:32:36;15.10;98.00
8945;DHT22;4507;40.232;29.132;2023-03-01T10:35:18;15.10;98.00
8945;DHT22;4507;40.232;29.132;2023-03-01T10:37:58;15.10;97.70
8945;DHT22;4507;40.232;29.132;2023-03-01T10:40:31;15.10;97.50
8945;DHT22;4507;40.232;29.132;2023-03-01T10:43:04;15.10;97.50
8945;DHT22;4507;40.232;29.132;2023-03-01T10:45:38;15.10;97.60
8945;DHT22;4507;40.232;29.132;2023-03-01T10:48:13;15.10;97.60
8945;DHT22;4507;40.232;29.132;2023-03-01T10:50:45;15.10;97.60
8945;DHT22;4507;40.232;29.132;2023-03-01T10:53:26;15.20;97.80
8945;DHT22;4507;40.232;29.132;2023-03-01T10:55:59;15.20;97.60
8945;DHT22;4507;40.232;29.132;2023-03-01T10:58:29;15.20;97.30
8945;DHT22;4507;40.232;29.132;2023-03-01T11:01:00;15.20;97.10
8945;DHT22;4507;40.232;29.132;2023-03-01T11:03:31;15.20;97.00
8945;DHT22;4507;40.232;29.132;2023-03-01T11:06:05;15.20;96.90
8945;DHT22;4507;40.232;29.132;2023-03-01T11:08:37;15.20;96.70
8945;DHT22;4507;40.232;29.132;2023-03-01T11:11:26;15.20;96.90
8945;DHT22;4507;40.232;29.132;2023-03-01T11:14:00;15.30;97.10
8945;DHT22;4507;40.232;29.132;2023-03-01T11:17:15;15.40;97.00
8945;DHT22;4507;40.232;29.132;2023-03-01T11:20:00;15.40;96.60
8945;DHT22;4507;40.232;29.132;2023-03-01T11:22:33;15.30;96.50
8945;DHT22;4507;40.232;29.132;2023-03-01T11:25:03;15.10;96.40
8945;DHT22;4507;40.232;29.132;2023-03-01T11:27:41;15.30;96.40
8945;DHT22;4507;40.232;29.132;2023-03-01T11:30:15;15.40;96.60
8945;DHT22;4507;40.232;29.132;2023-03-01T11:32:50;15.40;96.60
8945;DHT22;4507;40.232;29.132;2023-03-01T11:35:24;15.50;96.40
8945;DHT22;4507;40.232;29.132;2023-03-01T11:38:07;15.50;96.30
8945;DHT22;4507;40.232;29.132;2023-03-01T11:40:59;15.50;96.00
8945;DHT22;4507;40.232;29.132;2023-03-01T11:43:51;15.50;95.90
8945;DHT22;4507;40.232;29.132;2023-03-01T11:46:48;15.50;95.50
8945;DHT22;4507;40.232;29.132;2023-03-01T11:49:53;15.40;95.40
8945;DHT22;4507;40.232;29.132;2023-03-01T11:52:39;15.30;95.40
8945;DHT22;4507;40.232;29.132;2023-03-01T11:55:42;15.30;95.40
8945;DHT22;4507;40.232;29.132;2023-03-01T11:58:29;15.20;95.40
8945;DHT22;4507;40.232;29.132;2023-03-01T12:01:12;15.20;95.50
8945;DHT22;4507;40.232;29.132;2023-03-01T12:04:03;15.20;95.50
8945;DHT22;4507;40.232;29.132;2023-03-01T12:06:50;15.20;95.60
8945;DHT22;4507;40.232;29.132;2023-03-01T12:12:48;15.20;95.70
8945;DHT22;4507;40.232;29.132;2023-03-01T12:15:48;15.10;95.70
8945;DHT22;4507;40.232;29.132;2023-03-01T12:19:01;15.10;95.70
8945;DHT22;4507;40.232;29.132;2023-03-01T12:21:49;15.20;95.80
8945;DHT22;4507;40.232;29.132;2023-03-01T12:24:37;15.10;95.80
8945;DHT22;4507;40.232;29.132;2023-03-01T12:27:28;15.10;95.90
8945;DHT22;4507;40.232;29.132;2023-03-01T12:30:13;15.10;95.70
8945;DHT22;4507;40.232;29.132;2023-03-01T12:32:59;15.10;95.80
8945;DHT22;4507;40.232;29.132;2023-03-01T12:35:39;15.10;95.60
8945;DHT22;4507;40.232;29.132;2023-03-01T12:38:25;15.00;95.60
8945;DHT22;4507;40.232;29.132;2023-03-01T12:41:18;15.00;95.80
8945;DHT22;4507;40.232;29.132;2023-03-01T12:44:01;15.00;95.90
8945;DHT22;4507;40.232;29.132;2023-03-01T12:46:54;15.00;95.90
8945;DHT22;4507;40.232;29.132;2023-03-01T12:49:31;15.00;95.80
8945;DHT22;4507;40.232;29.132;2023-03-01T12:52:11;14.90;95.70
8945;DHT22;4507;40.232;29.132;2023-03-01T12:54:41;14.90;95.60
8945;DHT22;4507;40.232;29.132;2023-03-01T12:57:17;14.80;95.60
8945;DHT22;4507;40.232;29.132;2023-03-01T13:00:00;14.70;95.70
8945;DHT22;4507;40.232;29.132;2023-03-01T13:02:40;14.70;96.00
8945;DHT22;4507;40.232;29.132;2023-03-01T13:05:23;14.60;96.10
8945;DHT22;4507;40.232;29.132;2023-03-01T13:07:58;14.60;96.10
8945;DHT22;4507;40.232;29.132;2023-03-01T13:10:34;14.60;96.20
8945;DHT22;4507;40.232;29.132;2023-03-01T13:13:14;14.50;96.20
8945;DHT22;4507;40.232;29.132;2023-03-01T13:15:48;14.50;96.40
8945;DHT22;4507;40.232;29.132;2023-03-01T13:18:38;14.50;96.60
8945;DHT22;4507;40.232;29.132;2023-03-01T13:21:09;14.50;96.70
8945;DHT22;4507;40.232;29.132;2023-03-01T13:23:39;14.50;96.70
8945;DHT22;4507;40.232;29.132;2023-03-01T13:26:17;14.50;96.60
8945;DHT22;4507;40.232;29.132;2023-03-01T13:28:56;14.40;96.50
8945;DHT22;4507;40.232;29.132;2023-03-01T13:32:00;14.40;96.50
8945;DHT22;4507;40.232;29.132;2023-03-01T13:34:44;14.30;96.50
8945;DHT22;4507;40.232;29.132;2023-03-01T13:37:29;14.30;96.70
8945;DHT22;4507;40.232;29.132;2023-03-01T13:42:53;14.20;97.00
8945;DHT22;4507;40.232;29.132;2023-03-01T13:45:39;14.10;97.10
8945;DHT22;4507;40.232;29.132;2023-03-01T13:48:11;14.10;97.10
8945;DHT22;4507;40.232;29.132;2023-03-01T13:50:48;14.10;97.10
8945;DHT22;4507;40.232;29.132;2023-03-01T13:53:19;14.00;97.20
8945;DHT22;4507;40.232;29.132;2023-03-01T13:55:52;14.00;97.30
8945;DHT22;4507;40.232;29.132;2023-03-01T13:58:28;13.90;97.20
8945;DHT22;4507;40.232;29.132;2023-03-01T14:00:59;14.00;97.30
8945;DHT22;4507;40.232;29.132;2023-03-01T14:03:29;13.90;97.40
8945;DHT22;4507;40.232;29.132;2023-03-01T14:06:03;13.90;97.50
8945;DHT22;4507;40.232;29.132;2023-03-01T14:08:43;13.90;97.70
8945;DHT22;4507;40.232;29.132;2023-03-01T14:11:36;13.90;97.60
8945;DHT22;4507;40.232;29.132;2023-03-01T14:14:25;13.80;97.70
8945;DHT22;4507;40.232;29.132;2023-03-01T14:17:06;13.70;97.70
8945;DHT22;4507;40.232;29.132;2023-03-01T14:19:41;13.70;97.90
8945;DHT22;4507;40.232;29.132;2023-03-01T14:22:20;13.70;98.00
8945;DHT22;4507;40.232;29.132;2023-03-01T14:24:54;13.60;97.90
8945;DHT22;4507;40.232;29.132;2023-03-01T14:27:26;13.60;98.10
8945;DHT22;4507;40.232;29.132;2023-03-01T14:29:57;13.60;98.30
8945;DHT22;4507;40.232;29.132;2023-03-01T14:32:28;13.60;98.50
8945;DHT22;4507;40.232;29.132;2023-03-01T14:34:59;13.60;98.60
8945;DHT22;4507;40.232;29.132;2023-03-01T14:37:32;13.60;98.90
8945;DHT22;4507;40.232;29.132;2023-03-01T14:40:04;13.50;98.50
8945;DHT22;4507;40.232;29.132;2023-03-01T14:42:35;13.50;98.60
8945;DHT22;4507;40.232;29.132;2023-03-01T14:45:14;13.50;98.70
8945;DHT22;4507;40.232;29.132;2023-03-01T14:47:46;13.40;98.80
8945;DHT22;4507;40.232;29.132;2023-03-01T14:50:22;13.40;98.80
8945;DHT22;4507;40.232;29.132;2023-03-01T14:52:55;13.40;98.90
8945;DHT22;4507;40.232;29.132;2023-03-01T14:55:29;13.30;99.00
8945;DHT22;4507;40.232;29.132;2023-03-01T14:58:02;13.30;99.10
8945;DHT22;4507;40.232;29.132;2023-03-01T15:00:40;13.30;99.10
8945;DHT22;4507;40.232;29.132;2023-03-01T15:03:23;13.20;99.10
8945;DHT22;4507;40.232;29.132;2023-03-01T15:05:53;13.20;99.20
8945;DHT22;4507;40.232;29.132;2023-03-01T15:08:25;13.10;99.30
8945;DHT22;4507;40.232;29.132;2023-03-01T15:11:03;13.10;99.50
8945;DHT22;4507;40.232;29.132;2023-03-01T15:13:36;13.10;99.50
8945;DHT22;4507;40.232;29.132;2023-03-01T15:16:07;13.10;99.60
8945;DHT22;4507;40.232;29.132;2023-03-01T15:18:38;13.00;99.60
8945;DHT22;4507;40.232;29.132;2023-03-01T15:21:17;13.00;99.70
8945;DHT22;4507;40.232;29.132;2023-03-01T15:23:53;13.00;99.80
8945;DHT22;4507;40.232;29.132;2023-03-01T15:26:25;13.00;99.90
8945;DHT22;4507;40.232;29.132;2023-03-01T15:28:56;12.90;99.90
8945;DHT22;4507;40.232;29.132;2023-03-01T15:31:28;13.00;99.90
8945;DHT22;4507;40.232;29.132;2023-03-01T15:34:09;13.00;99.90
8945;DHT22;4507;40.232;29.132;2023-03-01T15:36:45;12.90;99.90
8945;DHT22;4507;40.232;29.132;2023-03-01T15:39:30;12.90;99.90
8945;DHT22;4507;40.232;29.132;2023-03-01T15:42:07;12.80;99.90
8945;DHT22;4507;40.232;29.132;2023-03-01T15:44:37;12.80;99.90
8945;DHT22;4507;40.232;29.132;2023-03-01T15:47:26;12.70;99.90
8945;DHT22;4507;40.232;29.132;2023-03-01T15:49:55;12.70;99.90
8945;DHT22;4507;40.232;29.132;2023-03-01T15:52:27;12.60;99.90
8945;DHT22;4507;40.232;29.132;2023-03-01T15:55:03;12.60;99.90
8945;DHT22;4507;40.232;29.132;2023-03-01T15:57:32;12.60;99.90
8945;DHT22;4507;40.232;29.132;2023-03-01T16:00:05;12.60;99.90
8945;DHT22;4507;40.232;29.132;2023-03-01T16:02:41;12.50;99.90
8945;DHT22;4507;40.232;29.132;2023-03-01T16:05:17;12.50;99.90
8945;DHT22;4507;40.232;29.132;2023-03-01T16:07:47;12.50;99.90
8945;DHT22;4507;40.232;29.132;2023-03-01T16:10:18;12.40;99.90
8945;DHT22;4507;40.232;29.132;2023-03-01T16:12:47;12.40;99.90
8945;DHT22;4507;40.232;29.132;2023-03-01T16:15:19;12.30;99.90
8945;DHT22;4507;40.232;29.132;2023-03-01T16:17:48;12.40;99.90
8945;DHT22;4507;40.232;29.132;2023-03-01T16:20:23;12.40;99.90
8945;DHT22;4507;40.232;29.132;2023-03-01T16:22:58;12.40;99.90
8945;DHT22;4507;40.232;29.132;2023-03-01T16:25:30;12.40;99.90
8945;DHT22;4507;40.232;29.132;2023-03-01T16:28:00;12.30;99.90
8945;DHT22;4507;40.232;29.132;2023-03-01T16:30:51;12.30;99.90
8945;DHT22;4507;40.232;29.132;2023-03-01T16:33:21;12.30;99.90
8945;DHT22;4507;40.232;29.132;2023-03-01T16:36:00;12.20;99.90
8945;DHT22;4507;40.232;29.132;2023-03-01T16:38:32;12.20;99.90